sensor_id;sensor_type;location;lat;lon;timestamp;pressure;altitude;pressure_sealevel;temperature;humidity
64230;BME280;50547;49.498;0.092;2023-01-15T00:00:14;1000;;;9.69;81.58
64230;BME280;50547;49.498;0.092;2023-01-15T00:02:43;1000;;;9.65;81.50
64230;BME280;50547;49.498;0.092;2023-01-15T00:05:13;1000;;;9.67;81.29
64230;BME280;50547;49.498;0.092;2023-01-15T00:07:42;1000;;;9.68;80.96
64230;BME280;50547;49.498;0.092;2023-01-15T00:10:11;1000;;;9.73;80.84
64230;BME280;50547;49.498;0.092;2023-01-15T00:12:41;1000;;;9.67;80.55
64230;BME280;50547;49.498;0.092;2023-01-15T00:15:10;1000;;;9.59;80.08
64230;BME280;50547;49.498;0.092;2023-01-15T00:17:40;1000;;;9.65;79.67
64230;BME280;50547;49.498;0.092;2023-01-15T00:20:10;1000;;;9.66;79.19
64230;BME280;50547;49.498;0.092;2023-01-15T00:22:39;1000;;;9.66;78.43
64230;BME280;50547;49.498;0.092;2023-01-15T00:25:09;1000;;;9.75;78.34
64230;BME280;50547;49.498;0.092;2023-01-15T00:27:39;1000;;;9.74;78.61
64230;BME280;50547;49.498;0.092;2023-01-15T00:30:11;1000;;;9.69;78.53
64230;BME280;50547;49.498;0.092;2023-01-15T09:38:44;1001;;;7.24;85.57
64230;BME280;50547;49.498;0.092;2023-01-15T09:41:14;1002;;;7.33;84.35
64230;BME280;50547;49.498;0.092;2023-01-15T09:43:47;1001;;;7.43;83.58
64230;BME280;50547;49.498;0.092;2023-01-15T09:46:24;1001;;;7.59;83.15
64230;BME280;50547;49.498;0.092;2023-01-15T09:48:57;1002;;;7.58;83.76
64230;BME280;50547;49.498;0.092;2023-01-15T09:51:33;1001;;;7.55;84.15
64230;BME280;50547;49.498;0.092;2023-01-15T09:54:15;1001;;;7.50;84.27
64230;BME280;50547;49.498;0.092;2023-01-15T09:56:47;1001;;;7.47;84.14
64230;BME280;50547;49.498;0.092;2023-01-15T09:59:24;1001;;;7.51;84.10
64230;BME280;50547;49.498;0.092;2023-01-15T10:01:54;1001;;;7.67;84.15
64230;BME280;50547;49.498;0.092;2023-01-15T10:04:33;1002;;;7.51;84.46
64230;BME280;50547;49.498;0.092;2023-01-15T10:07:11;1002;;;7.56;84.04
64230;BME280;50547;49.498;0.092;2023-01-15T10:10:03;1002;;;7.63;83.61
64230;BME280;50547;49.498;0.092;2023-01-15T10:12:35;1002;;;7.60;84.51
64230;BME280;50547;49.498;0.092;2023-01-15T10:15:14;1002;;;7.50;85.25
64230;BME280;50547;49.498;0.092;2023-01-15T10:17:45;1002;;;7.45;84.76
64230;BME280;50547;49.498;0.092;2023-01-15T10:20:16;1002;;;7.53;84.34
64230;BME280;50547;49.498;0.092;2023-01-15T10:22:59;1001;;;7.56;83.97
64230;BME280;50547;49.498;0.092;2023-01-15T10:25:34;1002;;;7.52;83.62
64230;BME280;50547;49.498;0.092;2023-01-15T10:28:18;1002;;;7.62;83.45
64230;BME280;50547;49.498;0.092;2023-01-15T10:30:52;1002;;;7.59;83.06
64230;BME280;50547;49.498;0.092;2023-01-15T10:33:35;1002;;;7.65;82.86
64230;BME280;50547;49.498;0.092;2023-01-15T10:36:12;1002;;;7.71;82.82
64230;BME280;50547;49.498;0.092;2023-01-15T10:38:54;1002;;;7.76;82.99
64230;BME280;50547;49.498;0.092;2023-01-15T10:41:33;1002;;;7.73;82.84
64230;BME280;50547;49.498;0.092;2023-01-15T10:44:11;1002;;;7.71;82.69
64230;BME280;50547;49.498;0.092;2023-01-15T10:46:49;1002;;;7.80;83.17
64230;BME280;50547;49.498;0.092;2023-01-15T10:49:21;1002;;;7.75;83.32
64230;BME280;50547;49.498;0.092;2023-01-15T10:51:52;1002;;;7.83;83.05
64230;BME280;50547;49.498;0.092;2023-01-15T10:54:35;1001;;;7.89;82.95
64230;BME280;50547;49.498;0.092;2023-01-15T10:57:07;1002;;;7.83;82.67
64230;BME280;50547;49.498;0.092;2023-01-15T10:59:39;1002;;;7.86;82.57
64230;BME280;50547;49.498;0.092;2023-01-15T11:02:22;1002;;;7.92;82.61
64230;BME280;50547;49.498;0.092;2023-01-15T11:04:57;1002;;;7.72;83.05
64230;BME280;50547;49.498;0.092;2023-01-15T11:07:32;1002;;;7.75;82.72
64230;BME280;50547;49.498;0.092;2023-01-15T11:10:08;1002;;;7.66;82.72
64230;BME280;50547;49.498;0.092;2023-01-15T11:12:39;1002;;;7.80;82.21
64230;BME280;50547;49.498;0.092;2023-01-15T11:15:17;1001;;;7.77;82.54
64230;BME280;50547;49.498;0.092;2023-01-15T11:17:49;1002;;;7.85;82.01
64230;BME280;50547;49.498;0.092;2023-01-15T11:20:26;1002;;;7.91;81.77
64230;BME280;50547;49.498;0.092;2023-01-15T11:22:57;1002;;;8.05;80.72
64230;BME280;50547;49.498;0.092;2023-01-15T11:25:34;1002;;;8.02;80.75
64230;BME280;50547;49.498;0.092;2023-01-15T11:28:05;1002;;;8.20;80.17
64230;BME280;50547;49.498;0.092;2023-01-15T11:30:37;1002;;;7.92;81.47
64230;BME280;50547;49.498;0.092;2023-01-15T11:33:20;1002;;;8.04;81.42
64230;BME280;50547;49.498;0.092;2023-01-15T11:35:50;1001;;;7.90;82.03
64230;BME280;50547;49.498;0.092;2023-01-15T11:38:20;1002;;;7.90;81.42
64230;BME280;50547;49.498;0.092;2023-01-15T11:40:52;1002;;;8.09;80.76
64230;BME280;50547;49.498;0.092;2023-01-15T11:43:23;1002;;;8.18;80.62
64230;BME280;50547;49.498;0.092;2023-01-15T11:45:53;1001;;;8.29;80.34
64230;BME280;50547;49.498;0.092;2023-01-15T11:48:23;1002;;;8.12;80.47
64230;BME280;50547;49.498;0.092;2023-01-15T11:50:55;1001;;;8.46;79.77
64230;BME280;50547;49.498;0.092;2023-01-15T11:53:26;1002;;;8.29;80.94
64230;BME280;50547;49.498;0.092;2023-01-15T11:55:59;1002;;;8.38;80.50
64230;BME280;50547;49.498;0.092;2023-01-15T11:58:27;1002;;;8.49;79.98
64230;BME280;50547;49.498;0.092;2023-01-15T12:00:56;1001;;;8.31;81.66
64230;BME280;50547;49.498;0.092;2023-01-15T12:03:28;1001;;;8.41;81.66
64230;BME280;50547;49.498;0.092;2023-01-15T12:06:01;1002;;;8.27;82.29
64230;BME280;50547;49.498;0.092;2023-01-15T12:08:42;1001;;;8.09;83.23
64230;BME280;50547;49.498;0.092;2023-01-15T12:11:30;1001;;;8.18;82.27
64230;BME280;50547;49.498;0.092;2023-01-15T12:14:22;1001;;;8.19;82.86
64230;BME280;50547;49.498;0.092;2023-01-15T12:17:02;1002;;;8.20;83.34
64230;BME280;50547;49.498;0.092;2023-01-15T12:19:39;1001;;;8.27;83.20
64230;BME280;50547;49.498;0.092;2023-01-15T12:22:22;1001;;;8.23;83.25
64230;BME280;50547;49.498;0.092;2023-01-15T12:25:04;1001;;;8.22;83.22
64230;BME280;50547;49.498;0.092;2023-01-15T12:27:46;1001;;;8.22;83.17
64230;BME280;50547;49.498;0.092;2023-01-15T12:30:22;1001;;;8.21;83.04
64230;BME280;50547;49.498;0.092;2023-01-15T12:32:59;1001;;;8.55;81.99
64230;BME280;50547;49.498;0.092;2023-01-15T12:35:34;1001;;;8.61;79.11
64230;BME280;50547;49.498;0.092;2023-01-15T12:38:12;1001;;;8.66;78.05
64230;BME280;50547;49.498;0.092;2023-01-15T12:40:47;1001;;;8.89;77.14
64230;BME280;50547;49.498;0.092;2023-01-15T12:43:23;1001;;;9.02;76.68
64230;BME280;50547;49.498;0.092;2023-01-15T12:45:53;1001;;;9.02;77.24
64230;BME280;50547;49.498;0.092;2023-01-15T12:48:31;1001;;;8.88;76.67
64230;BME280;50547;49.498;0.092;2023-01-15T12:51:12;1001;;;8.79;78.32
64230;BME280;50547;49.498;0.092;2023-01-15T12:53:45;1000;;;8.53;81.32
64230;BME280;50547;49.498;0.092;2023-01-15T12:56:20;1001;;;8.63;80.26
64230;BME280;50547;49.498;0.092;2023-01-15T12:58:55;1000;;;9.15;76.04
64230;BME280;50547;49.498;0.092;2023-01-15T13:01:30;1000;;;9.34;75.25
64230;BME280;50547;49.498;0.092;2023-01-15T13:04:10;1000;;;9.29;73.57
64230;BME280;50547;49.498;0.092;2023-01-15T13:06:42;1000;;;8.96;77.31
64230;BME280;50547;49.498;0.092;2023-01-15T13:09:21;1000;;;8.83;77.51
64230;BME280;50547;49.498;0.092;2023-01-15T13:11:53;1000;;;8.98;77.32
64230;BME280;50547;49.498;0.092;2023-01-15T13:14:23;1000;;;8.97;76.58
64230;BME280;50547;49.498;0.092;2023-01-15T13:16:56;1000;;;9.31;75.29
64230;BME280;50547;49.498;0.092;2023-01-15T13:19:37;1000;;;9.12;75.61
64230;BME280;50547;49.498;0.092;2023-01-15T13:22:13;1000;;;9.10;76.52
64230;BME280;50547;49.498;0.092;2023-01-15T13:25:01;1000;;;8.95;76.31
64230;BME280;50547;49.498;0.092;2023-01-15T13:27:44;1001;;;8.90;76.72
64230;BME280;50547;49.498;0.092;2023-01-15T13:30:30;1000;;;8.92;77.90
64230;BME280;50547;49.498;0.092;2023-01-15T13:33:12;1000;;;8.90;78.65
64230;BME280;50547;49.498;0.092;2023-01-15T13:35:45;1000;;;8.36;79.82
64230;BME280;50547;49.498;0.092;2023-01-15T13:38:19;1000;;;7.80;81.21
64230;BME280;50547;49.498;0.092;2023-01-15T13:40:51;1000;;;7.78;82.55
64230;BME280;50547;49.498;0.092;2023-01-15T13:43:27;1000;;;7.75;82.83
64230;BME280;50547;49.498;0.092;2023-01-15T13:45:56;1000;;;7.75;84.41
64230;BME280;50547;49.498;0.092;2023-01-15T13:48:30;1000;;;7.88;84.42
64230;BME280;50547;49.498;0.092;2023-01-15T13:51:02;1000;;;7.93;83.89
64230;BME280;50547;49.498;0.092;2023-01-15T13:53:34;1000;;;7.88;82.42
64230;BME280;50547;49.498;0.092;2023-01-15T13:56:06;1000;;;8.09;82.41
64230;BME280;50547;49.498;0.092;2023-01-15T13:58:52;1000;;;8.06;83.44
64230;BME280;50547;49.498;0.092;2023-01-15T14:01:24;1000;;;7.99;84.29
64230;BME280;50547;49.498;0.092;2023-01-15T14:03:59;1000;;;8.08;84.48
64230;BME280;50547;49.498;0.092;2023-01-15T14:06:41;1000;;;8.06;84.77
64230;BME280;50547;49.498;0.092;2023-01-15T14:09:26;999;;;7.98;85.54
64230;BME280;50547;49.498;0.092;2023-01-15T14:12:04;1000;;;7.90;85.17
64230;BME280;50547;49.498;0.092;2023-01-15T14:15:00;1000;;;7.75;83.98
64230;BME280;50547;49.498;0.092;2023-01-15T14:17:58;1000;;;7.63;83.47
64230;BME280;50547;49.498;0.092;2023-01-15T14:20:37;1000;;;7.78;83.72
64230;BME280;50547;49.498;0.092;2023-01-15T14:23:17;1000;;;7.40;85.79
64230;BME280;50547;49.498;0.092;2023-01-15T14:25:56;1000;;;7.26;86.97
64230;BME280;50547;49.498;0.092;2023-01-15T14:28:39;1000;;;7.17;86.87
64230;BME280;50547;49.498;0.092;2023-01-15T14:31:28;1000;;;7.12;86.70
64230;BME280;50547;49.498;0.092;2023-01-15T14:34:11;1000;;;7.39;86.23
64230;BME280;50547;49.498;0.092;2023-01-15T14:36:49;1000;;;7.49;86.83
64230;BME280;50547;49.498;0.092;2023-01-15T14:39:26;999;;;7.50;86.64
64230;BME280;50547;49.498;0.092;2023-01-15T14:42:01;999;;;7.67;86.11
64230;BME280;50547;49.498;0.092;2023-01-15T14:44:40;1000;;;7.75;85.99
64230;BME280;50547;49.498;0.092;2023-01-15T14:47:22;999;;;7.90;85.73
64230;BME280;50547;49.498;0.092;2023-01-15T14:50:00;999;;;7.91;85.52
64230;BME280;50547;49.498;0.092;2023-01-15T14:52:30;999;;;8.00;85.31
64230;BME280;50547;49.498;0.092;2023-01-15T14:54:59;999;;;8.03;85.03
64230;BME280;50547;49.498;0.092;2023-01-15T14:57:29;1000;;;7.96;85.94
64230;BME280;50547;49.498;0.092;2023-01-15T15:00:00;1000;;;7.45;86.62
64230;BME280;50547;49.498;0.092;2023-01-15T15:02:35;999;;;7.37;87.37
64230;BME280;50547;49.498;0.092;2023-01-15T15:05:13;999;;;7.35;86.38
64230;BME280;50547;49.498;0.092;2023-01-15T15:07:46;999;;;7.74;85.61
64230;BME280;50547;49.498;0.092;2023-01-15T15:10:21;999;;;7.80;85.82
64230;BME280;50547;49.498;0.092;2023-01-15T15:12:57;999;;;8.03;85.39
64230;BME280;50547;49.498;0.092;2023-01-15T15:15:38;999;;;8.03;85.51
64230;BME280;50547;49.498;0.092;2023-01-15T15:18:14;999;;;7.93;85.87
64230;BME280;50547;49.498;0.092;2023-01-15T15:20:54;999;;;7.72;86.54
64230;BME280;50547;49.498;0.092;2023-01-15T15:23:27;999;;;7.83;85.90
64230;BME280;50547;49.498;0.092;2023-01-15T15:25:55;999;;;7.88;84.80
64230;BME280;50547;49.498;0.092;2023-01-15T15:28:22;999;;;7.78;84.32
64230;BME280;50547;49.498;0.092;2023-01-15T15:30:52;999;;;7.74;83.05
64230;BME280;50547;49.498;0.092;2023-01-15T15:33:25;999;;;7.66;83.75
64230;BME280;50547;49.498;0.092;2023-01-15T15:35:57;999;;;7.65;83.69
64230;BME280;50547;49.498;0.092;2023-01-15T15:38:27;999;;;7.67;83.97
64230;BME280;50547;49.498;0.092;2023-01-15T15:40:59;999;;;7.55;84.20
64230;BME280;50547;49.498;0.092;2023-01-15T15:43:38;999;;;7.48;84.10
64230;BME280;50547;49.498;0.092;2023-01-15T15:46:23;999;;;7.71;84.04
64230;BME280;50547;49.498;0.092;2023-01-15T15:48:56;999;;;7.79;82.85
64230;BME280;50547;49.498;0.092;2023-01-15T15:51:30;999;;;7.85;82.62
64230;BME280;50547;49.498;0.092;2023-01-15T15:54:10;999;;;7.93;81.87
64230;BME280;50547;49.498;0.092;2023-01-15T15:56:45;999;;;7.87;82.50
64230;BME280;50547;49.498;0.092;2023-01-15T15:59:21;999;;;7.82;82.59
64230;BME280;50547;49.498;0.092;2023-01-15T16:01:53;999;;;7.99;83.02
64230;BME280;50547;49.498;0.092;2023-01-15T16:04:23;999;;;7.96;83.44
64230;BME280;50547;49.498;0.092;2023-01-15T16:06:53;998;;;8.03;83.54
64230;BME280;50547;49.498;0.092;2023-01-15T16:09:23;999;;;8.10;83.46
64230;BME280;50547;49.498;0.092;2023-01-15T16:11:52;998;;;8.00;84.07
64230;BME280;50547;49.498;0.092;2023-01-15T16:14:22;999;;;7.94;84.44
64230;BME280;50547;49.498;0.092;2023-01-15T16:17:01;999;;;7.89;84.50
64230;BME280;50547;49.498;0.092;2023-01-15T16:19:31;999;;;8.05;84.17
64230;BME280;50547;49.498;0.092;2023-01-15T16:22:00;998;;;8.02;83.75
64230;BME280;50547;49.498;0.092;2023-01-15T16:24:29;999;;;8.07;83.71
64230;BME280;50547;49.498;0.092;2023-01-15T16:27:01;998;;;8.00;83.24
64230;BME280;50547;49.498;0.092;2023-01-15T16:29:32;998;;;8.03;82.45
64230;BME280;50547;49.498;0.092;2023-01-15T16:32:09;998;;;8.18;81.64
64230;BME280;50547;49.498;0.092;2023-01-15T16:34:39;998;;;8.07;81.71
64230;BME280;50547;49.498;0.092;2023-01-15T16:37:22;998;;;8.20;81.81
64230;BME280;50547;49.498;0.092;2023-01-15T16:39:53;998;;;8.21;81.91
64230;BME280;50547;49.498;0.092;2023-01-15T16:42:25;998;;;8.33;82.24
64230;BME280;50547;49.498;0.092;2023-01-15T16:44:57;998;;;8.22;82.21
64230;BME280;50547;49.498;0.092;2023-01-15T16:47:30;998;;;8.24;81.82
64230;BME280;50547;49.498;0.092;2023-01-15T16:50:33;998;;;8.13;81.15
64230;BME280;50547;49.498;0.092;2023-01-15T16:53:04;998;;;8.19;80.77
64230;BME280;50547;49.498;0.092;2023-01-15T16:55:36;998;;;8.26;80.90
64230;BME280;50547;49.498;0.092;2023-01-15T16:58:15;998;;;8.19;80.66
64230;BME280;50547;49.498;0.092;2023-01-15T17:01:34;998;;;8.29;80.46
64230;BME280;50547;49.498;0.092;2023-01-15T17:04:19;998;;;8.38;80.16
64230;BME280;50547;49.498;0.092;2023-01-15T17:06:55;998;;;8.34;80.92
64230;BME280;50547;49.498;0.092;2023-01-15T17:09:26;998;;;8.30;81.18
64230;BME280;50547;49.498;0.092;2023-01-15T17:11:55;998;;;8.26;81.43
64230;BME280;50547;49.498;0.092;2023-01-15T17:14:26;998;;;8.24;81.44
64230;BME280;50547;49.498;0.092;2023-01-15T17:17:20;998;;;8.18;81.74
64230;BME280;50547;49.498;0.092;2023-01-15T17:19:57;998;;;8.12;81.93
64230;BME280;50547;49.498;0.092;2023-01-15T17:22:28;998;;;8.17;82.05
64230;BME280;50547;49.498;0.092;2023-01-15T17:24:59;998;;;8.09;82.32
64230;BME280;50547;49.498;0.092;2023-01-15T17:27:29;999;;;8.12;82.45
64230;BME280;50547;49.498;0.092;2023-01-15T17:29:58;998;;;8.07;82.33
64230;BME280;50547;49.498;0.092;2023-01-15T17:32:31;998;;;8.09;82.39
64230;BME280;50547;49.498;0.092;2023-01-15T17:35:01;998;;;8.09;82.41
64230;BME280;50547;49.498;0.092;2023-01-15T17:37:31;998;;;8.04;82.49
64230;BME280;50547;49.498;0.092;2023-01-15T17:39:59;998;;;7.92;83.47
64230;BME280;50547;49.498;0.092;2023-01-15T17:42:28;998;;;7.82;83.54
64230;BME280;50547;49.498;0.092;2023-01-15T17:44:57;998;;;7.84;83.39
64230;BME280;50547;49.498;0.092;2023-01-15T17:47:26;998;;;7.83;83.63
64230;BME280;50547;49.498;0.092;2023-01-15T17:49:55;998;;;7.89;83.04
64230;BME280;50547;49.498;0.092;2023-01-15T17:52:24;998;;;7.86;83.10
64230;BME280;50547;49.498;0.092;2023-01-15T17:54:54;998;;;7.87;83.13
64230;BME280;50547;49.498;0.092;2023-01-15T17:57:24;998;;;7.92;83.14
64230;BME280;50547;49.498;0.092;2023-01-15T17:59:53;998;;;7.82;82.89
64230;BME280;50547;49.498;0.092;2023-01-15T18:02:22;998;;;7.86;82.83
64230;BME280;50547;49.498;0.092;2023-01-15T18:04:53;998;;;7.83;82.33
64230;BME280;50547;49.498;0.092;2023-01-15T18:07:23;998;;;7.92;82.02
64230;BME280;50547;49.498;0.092;2023-01-15T18:09:54;998;;;7.94;82.38
64230;BME280;50547;49.498;0.092;2023-01-15T18:12:23;998;;;7.97;82.15
64230;BME280;50547;49.498;0.092;2023-01-15T18:14:53;998;;;7.99;82.25
64230;BME280;50547;49.498;0.092;2023-01-15T18:17:22;998;;;7.99;81.79
64230;BME280;50547;49.498;0.092;2023-01-15T18:19:51;998;;;7.96;81.72
64230;BME280;50547;49.498;0.092;2023-01-15T18:22:20;998;;;7.88;82.34
64230;BME280;50547;49.498;0.092;2023-01-15T18:24:50;998;;;7.91;81.60
64230;BME280;50547;49.498;0.092;2023-01-15T18:27:19;998;;;7.96;81.68
64230;BME280;50547;49.498;0.092;2023-01-15T18:29:48;998;;;7.97;82.09
64230;BME280;50547;49.498;0.092;2023-01-15T18:32:17;998;;;7.97;82.23
64230;BME280;50547;49.498;0.092;2023-01-15T18:34:46;998;;;7.98;82.19
64230;BME280;50547;49.498;0.092;2023-01-15T18:37:41;998;;;7.94;82.53
64230;BME280;50547;49.498;0.092;2023-01-15T18:40:11;998;;;7.88;82.62
64230;BME280;50547;49.498;0.092;2023-01-15T18:42:40;998;;;7.85;82.28
64230;BME280;50547;49.498;0.092;2023-01-15T18:45:10;998;;;7.87;82.40
64230;BME280;50547;49.498;0.092;2023-01-15T18:47:54;998;;;7.90;82.38
64230;BME280;50547;49.498;0.092;2023-01-15T18:50:24;998;;;8.02;82.54
64230;BME280;50547;49.498;0.092;2023-01-15T18:52:53;997;;;7.89;82.72
64230;BME280;50547;49.498;0.092;2023-01-15T18:55:23;997;;;7.86;82.56
64230;BME280;50547;49.498;0.092;2023-01-15T18:57:54;997;;;7.92;82.55
64230;BME280;50547;49.498;0.092;2023-01-15T19:00:23;997;;;7.82;82.35
64230;BME280;50547;49.498;0.092;2023-01-15T19:02:53;998;;;7.87;81.76
64230;BME280;50547;49.498;0.092;2023-01-15T19:05:22;997;;;7.90;81.54
64230;BME280;50547;49.498;0.092;2023-01-15T19:07:52;997;;;7.82;81.96
64230;BME280;50547;49.498;0.092;2023-01-15T19:10:21;997;;;7.90;81.57
64230;BME280;50547;49.498;0.092;2023-01-15T19:12:50;997;;;8.02;81.39
64230;BME280;50547;49.498;0.092;2023-01-15T19:15:30;997;;;8.11;81.08
64230;BME280;50547;49.498;0.092;2023-01-15T19:17:59;997;;;8.08;81.00
64230;BME280;50547;49.498;0.092;2023-01-15T19:20:28;997;;;8.03;81.11
64230;BME280;50547;49.498;0.092;2023-01-15T19:22:58;997;;;8.06;81.14
64230;BME280;50547;49.498;0.092;2023-01-15T19:25:29;997;;;8.02;81.47
64230;BME280;50547;49.498;0.092;2023-01-15T19:27:59;997;;;7.97;81.32
64230;BME280;50547;49.498;0.092;2023-01-15T19:30:29;997;;;7.95;81.10
64230;BME280;50547;49.498;0.092;2023-01-15T19:32:58;997;;;7.98;80.83
64230;BME280;50547;49.498;0.092;2023-01-15T19:35:27;997;;;8.06;80.55
64230;BME280;50547;49.498;0.092;2023-01-15T19:37:56;997;;;8.07;80.99
64230;BME280;50547;49.498;0.092;2023-01-15T19:40:26;997;;;8.04;81.30
64230;BME280;50547;49.498;0.092;2023-01-15T19:42:55;997;;;7.96;81.50
64230;BME280;50547;49.498;0.092;2023-01-15T19:45:25;996;;;8.00;81.67
64230;BME280;50547;49.498;0.092;2023-01-15T19:47:55;996;;;8.08;82.36
64230;BME280;50547;49.498;0.092;2023-01-15T19:50:30;996;;;8.20;82.69
64230;BME280;50547;49.498;0.092;2023-01-15T19:53:02;996;;;8.06;83.28
64230;BME280;50547;49.498;0.092;2023-01-15T19:55:32;996;;;8.01;83.32
64230;BME280;50547;49.498;0.092;2023-01-15T19:58:04;996;;;8.09;82.93
64230;BME280;50547;49.498;0.092;2023-01-15T20:00:36;996;;;8.04;82.67
64230;BME280;50547;49.498;0.092;2023-01-15T20:03:05;996;;;7.96;82.49
64230;BME280;50547;49.498;0.092;2023-01-15T20:05:35;996;;;8.04;82.00
64230;BME280;50547;49.498;0.092;2023-01-15T20:08:04;996;;;8.00;81.50
64230;BME280;50547;49.498;0.092;2023-01-15T20:10:34;996;;;7.97;81.42
64230;BME280;50547;49.498;0.092;2023-01-15T20:13:03;996;;;8.12;81.06
64230;BME280;50547;49.498;0.092;2023-01-15T20:15:32;996;;;8.14;80.97
64230;BME280;50547;49.498;0.092;2023-01-15T20:18:04;996;;;7.98;81.37
64230;BME280;50547;49.498;0.092;2023-01-15T20:20:33;996;;;7.88;81.59
64230;BME280;50547;49.498;0.092;2023-01-15T20:23:02;996;;;8.02;81.50
64230;BME280;50547;49.498;0.092;2023-01-15T20:25:32;995;;;8.03;81.37
64230;BME280;50547;49.498;0.092;2023-01-15T20:28:15;995;;;8.01;81.43
64230;BME280;50547;49.498;0.092;2023-01-15T20:30:44;995;;;7.98;81.47
64230;BME280;50547;49.498;0.092;2023-01-15T20:33:13;995;;;7.95;81.71
64230;BME280;50547;49.498;0.092;2023-01-15T20:35:42;995;;;7.97;81.75
64230;BME280;50547;49.498;0.092;2023-01-15T20:38:12;995;;;7.97;81.50
64230;BME280;50547;49.498;0.092;2023-01-15T20:40:41;995;;;7.89;81.84
64230;BME280;50547;49.498;0.092;2023-01-15T20:43:10;995;;;7.85;81.74
64230;BME280;50547;49.498;0.092;2023-01-15T20:45:39;995;;;7.75;82.11
64230;BME280;50547;49.498;0.092;2023-01-15T20:48:09;994;;;7.90;81.54
64230;BME280;50547;49.498;0.092;2023-01-15T20:50:39;994;;;7.88;81.51
64230;BME280;50547;49.498;0.092;2023-01-15T20:53:17;994;;;7.87;81.45
64230;BME280;50547;49.498;0.092;2023-01-15T20:55:44;994;;;7.83;81.51
64230;BME280;50547;49.498;0.092;2023-01-15T20:58:13;994;;;7.88;81.36
64230;BME280;50547;49.498;0.092;2023-01-15T21:00:42;994;;;7.89;81.41
64230;BME280;50547;49.498;0.092;2023-01-15T21:03:11;994;;;7.90;81.44
64230;BME280;50547;49.498;0.092;2023-01-15T21:05:40;994;;;7.74;81.88
64230;BME280;50547;49.498;0.092;2023-01-15T21:08:09;994;;;7.87;81.26
64230;BME280;50547;49.498;0.092;2023-01-15T21:10:40;994;;;7.87;81.16
64230;BME280;50547;49.498;0.092;2023-01-15T21:13:09;993;;;7.87;81.44
64230;BME280;50547;49.498;0.092;2023-01-15T21:15:38;993;;;7.95;81.08
64230;BME280;50547;49.498;0.092;2023-01-15T21:18:07;993;;;7.97;80.93
64230;BME280;50547;49.498;0.092;2023-01-15T21:20:37;993;;;7.97;80.90
64230;BME280;50547;49.498;0.092;2023-01-15T21:23:07;993;;;7.94;81.06
64230;BME280;50547;49.498;0.092;2023-01-15T21:25:37;993;;;7.90;81.20
64230;BME280;50547;49.498;0.092;2023-01-15T21:28:06;993;;;7.93;80.99
64230;BME280;50547;49.498;0.092;2023-01-15T21:30:35;993;;;7.97;80.68
64230;BME280;50547;49.498;0.092;2023-01-15T21:33:05;993;;;7.99;80.42
64230;BME280;50547;49.498;0.092;2023-01-15T21:35:37;993;;;8.06;80.06
64230;BME280;50547;49.498;0.092;2023-01-15T21:38:07;992;;;8.13;79.83
64230;BME280;50547;49.498;0.092;2023-01-15T21:40:37;992;;;8.22;79.48
64230;BME280;50547;49.498;0.092;2023-01-15T21:43:08;992;;;8.18;79.87
64230;BME280;50547;49.498;0.092;2023-01-15T21:45:38;992;;;8.28;79.57
64230;BME280;50547;49.498;0.092;2023-01-15T21:48:08;992;;;8.23;79.95
64230;BME280;50547;49.498;0.092;2023-01-15T21:50:37;992;;;8.15;80.38
64230;BME280;50547;49.498;0.092;2023-01-15T21:53:06;992;;;8.16;80.18
64230;BME280;50547;49.498;0.092;2023-01-15T21:56:05;992;;;8.13;80.28
64230;BME280;50547;49.498;0.092;2023-01-15T21:58:35;991;;;8.22;80.06
64230;BME280;50547;49.498;0.092;2023-01-15T22:01:07;991;;;8.21;80.07
64230;BME280;50547;49.498;0.092;2023-01-15T22:03:37;991;;;8.21;79.89
64230;BME280;50547;49.498;0.092;2023-01-15T22:06:08;991;;;8.21;79.83
64230;BME280;50547;49.498;0.092;2023-01-15T22:08:38;991;;;8.28;79.86
64230;BME280;50547;49.498;0.092;2023-01-15T22:11:06;991;;;8.34;79.63
64230;BME280;50547;49.498;0.092;2023-01-15T22:13:36;991;;;8.24;79.93
64230;BME280;50547;49.498;0.092;2023-01-15T22:16:06;990;;;8.33;79.41
64230;BME280;50547;49.498;0.092;2023-01-15T22:18:36;990;;;8.37;79.51
64230;BME280;50547;49.498;0.092;2023-01-15T22:21:06;990;;;8.38;79.68
64230;BME280;50547;49.498;0.092;2023-01-15T22:23:36;990;;;8.30;80.32
64230;BME280;50547;49.498;0.092;2023-01-15T22:26:14;990;;;8.26;80.64
64230;BME280;50547;49.498;0.092;2023-01-15T22:28:44;990;;;8.15;81.10
64230;BME280;50547;49.498;0.092;2023-01-15T22:31:14;990;;;8.16;81.29
64230;BME280;50547;49.498;0.092;2023-01-15T22:33:43;989;;;8.20;81.12
64230;BME280;50547;49.498;0.092;2023-01-15T22:36:13;989;;;8.15;81.36
64230;BME280;50547;49.498;0.092;2023-01-15T22:38:39;989;;;8.23;81.31
64230;BME280;50547;49.498;0.092;2023-01-15T22:41:06;989;;;8.24;81.41
64230;BME280;50547;49.498;0.092;2023-01-15T22:43:35;989;;;8.21;81.59
64230;BME280;50547;49.498;0.092;2023-01-15T22:46:09;989;;;8.14;82.02
64230;BME280;50547;49.498;0.092;2023-01-15T22:48:39;989;;;8.12;82.14
64230;BME280;50547;49.498;0.092;2023-01-15T22:51:08;988;;;8.32;81.51
64230;BME280;50547;49.498;0.092;2023-01-15T22:53:37;988;;;8.26;81.94
64230;BME280;50547;49.498;0.092;2023-01-15T22:56:07;988;;;8.26;82.16
64230;BME280;50547;49.498;0.092;2023-01-15T22:59:05;988;;;8.19;82.61
64230;BME280;50547;49.498;0.092;2023-01-15T23:01:35;987;;;8.22;82.54
64230;BME280;50547;49.498;0.092;2023-01-15T23:04:07;987;;;8.16;82.83
64230;BME280;50547;49.498;0.092;2023-01-15T23:06:39;987;;;8.10;83.17
64230;BME280;50547;49.498;0.092;2023-01-15T23:09:10;987;;;8.12;83.26
64230;BME280;50547;49.498;0.092;2023-01-15T23:11:46;987;;;8.00;83.83
64230;BME280;50547;49.498;0.092;2023-01-15T23:14:16;986;;;7.97;84.21
64230;BME280;50547;49.498;0.092;2023-01-15T23:16:51;986;;;8.02;83.95
64230;BME280;50547;49.498;0.092;2023-01-15T23:19:20;986;;;8.01;84.07
64230;BME280;50547;49.498;0.092;2023-01-15T23:21:50;986;;;7.94;84.40
64230;BME280;50547;49.498;0.092;2023-01-15T23:24:17;986;;;7.96;84.35
64230;BME280;50547;49.498;0.092;2023-01-15T23:26:44;986;;;7.96;84.42
64230;BME280;50547;49.498;0.092;2023-01-15T23:29:12;986;;;8.01;84.35
64230;BME280;50547;49.498;0.092;2023-01-15T23:31:41;985;;;7.84;85.17
64230;BME280;50547;49.498;0.092;2023-01-15T23:34:10;985;;;7.91;84.94
64230;BME280;50547;49.498;0.092;2023-01-15T23:36:37;985;;;7.82;85.20
64230;BME280;50547;49.498;0.092;2023-01-15T23:39:07;984;;;7.80;85.24
64230;BME280;50547;49.498;0.092;2023-01-15T23:41:36;985;;;7.76;85.41
64230;BME280;50547;49.498;0.092;2023-01-15T23:44:12;984;;;7.80;85.30